createdAt,value
2018-03-31T00:00:24.975Z,6.90
2018-03-31T00:02:27.878Z,6.80
2018-03-31T00:04:32.244Z,6.70
2018-03-31T00:06:35.103Z,6.70
2018-03-31T00:08:37.941Z,6.60
2018-03-31T00:10:40.829Z,6.60
2018-03-31T00:12:43.717Z,6.60
2018-03-31T00:14:47.314Z,6.50
2018-03-31T00:16:50.149Z,6.50
2018-03-31T00:18:53.000Z,6.60
2018-03-31T00:20:55.873Z,6.60
2018-03-31T00:22:58.733Z,6.60
2018-03-31T00:25:01.602Z,6.60
2018-03-31T00:27:04.479Z,6.60
2018-03-31T00:29:08.099Z,6.70
2018-03-31T00:31:10.966Z,6.70
2018-03-31T00:33:13.881Z,6.70
2018-03-31T00:35:17.544Z,6.70
2018-03-31T00:37:21.849Z,6.80
2018-03-31T00:39:25.341Z,6.80
2018-03-31T00:41:29.824Z,6.90
2018-03-31T00:43:32.696Z,6.80
2018-03-31T00:45:35.549Z,6.80
2018-03-31T00:47:40.155Z,6.70
2018-03-31T00:49:44.724Z,6.80
2018-03-31T00:51:47.580Z,6.80
2018-03-31T00:53:50.460Z,6.80
2018-03-31T00:55:53.317Z,6.80
2018-03-31T00:57:57.822Z,6.70
2018-03-31T01:00:00.743Z,6.70
2018-03-31T01:02:03.621Z,6.70
2018-03-31T01:04:06.475Z,6.70
2018-03-31T01:06:09.344Z,6.70
2018-03-31T01:08:12.975Z,6.70
2018-03-31T01:10:15.864Z,6.70
2018-03-31T01:12:18.720Z,6.70
2018-03-31T01:14:22.332Z,6.70
2018-03-31T01:16:25.171Z,6.70
2018-03-31T01:18:28.802Z,6.70
2018-03-31T01:20:31.700Z,6.70
2018-03-31T01:22:34.546Z,6.70
2018-03-31T01:24:38.171Z,6.70
2018-03-31T01:26:41.062Z,6.70
2018-03-31T01:28:44.882Z,6.70
2018-03-31T01:30:47.786Z,6.70
2018-03-31T01:32:51.401Z,6.70
2018-03-31T01:34:54.265Z,6.70
2018-03-31T01:36:57.906Z,6.70
2018-03-31T01:39:00.789Z,6.70
2018-03-31T01:41:03.642Z,6.70
2018-03-31T01:43:07.286Z,6.80
2018-03-31T01:45:10.178Z,6.80
2018-03-31T01:47:13.050Z,6.70
2018-03-31T01:49:15.929Z,6.70
2018-03-31T01:51:18.852Z,6.70
2018-03-31T01:53:22.477Z,6.70
2018-03-31T01:55:25.411Z,6.70
2018-03-31T01:57:29.071Z,6.70
2018-03-31T01:59:31.955Z,6.70
2018-03-31T02:01:34.854Z,6.70
2018-03-31T02:03:37.730Z,6.70
2018-03-31T02:05:40.600Z,6.70
2018-03-31T02:07:43.505Z,6.60
2018-03-31T02:09:46.382Z,6.60
2018-03-31T02:11:50.064Z,6.50
2018-03-31T02:13:52.948Z,6.50
2018-03-31T02:15:55.803Z,6.50
2018-03-31T02:17:58.692Z,6.50
2018-03-31T02:20:01.552Z,6.50
2018-03-31T02:22:05.187Z,6.40
2018-03-31T02:24:08.068Z,6.40
2018-03-31T02:26:10.949Z,6.40
2018-03-31T02:28:13.890Z,6.30
2018-03-31T02:30:17.502Z,6.30
2018-03-31T02:32:20.790Z,6.30
2018-03-31T02:34:23.673Z,6.30
2018-03-31T02:36:26.592Z,6.30
2018-03-31T02:38:29.473Z,6.30
2018-03-31T02:40:32.332Z,6.30
2018-03-31T02:42:35.180Z,6.40
2018-03-31T02:44:38.034Z,6.30
2018-03-31T02:46:40.893Z,6.20
2018-03-31T02:48:43.760Z,6.20
2018-03-31T02:50:47.353Z,6.10
2018-03-31T02:52:50.173Z,6.10
2018-03-31T02:54:53.831Z,6.00
2018-03-31T02:56:56.710Z,6.00
2018-03-31T02:58:59.634Z,6.00
2018-03-31T03:01:03.265Z,5.90
2018-03-31T03:03:06.867Z,5.90
2018-03-31T03:05:10.505Z,5.80
2018-03-31T03:07:14.301Z,5.80
2018-03-31T03:09:17.932Z,5.80
2018-03-31T03:11:20.774Z,5.70
2018-03-31T03:13:23.642Z,5.70
2018-03-31T03:15:26.248Z,5.70
2018-03-31T03:17:28.849Z,5.70
2018-03-31T03:19:31.474Z,5.60
2018-03-31T03:21:34.817Z,5.60
2018-03-31T03:23:38.171Z,5.60
2018-03-31T03:25:40.864Z,5.50
2018-03-31T03:27:43.455Z,5.50
2018-03-31T03:29:46.110Z,5.50
2018-03-31T03:31:48.694Z,5.50
2018-03-31T03:33:51.295Z,5.50
2018-03-31T03:35:53.935Z,5.50
2018-03-31T03:37:56.541Z,5.50
2018-03-31T03:39:59.116Z,5.40
2018-03-31T03:42:01.739Z,5.40
2018-03-31T03:44:04.342Z,5.40
2018-03-31T03:46:06.988Z,5.40
2018-03-31T03:48:09.582Z,5.40
2018-03-31T03:50:12.181Z,5.40
2018-03-31T03:52:14.836Z,5.40
2018-03-31T03:54:17.470Z,5.40
2018-03-31T03:56:20.884Z,5.30
2018-03-31T03:58:23.478Z,5.30
2018-03-31T04:00:26.074Z,5.30
2018-03-31T04:02:28.707Z,5.30
2018-03-31T04:04:31.305Z,5.30
2018-03-31T04:06:33.935Z,5.20
2018-03-31T04:08:37.284Z,5.20
2018-03-31T04:10:39.934Z,5.20
2018-03-31T04:12:43.318Z,5.20
2018-03-31T04:14:45.914Z,5.20
2018-03-31T04:16:48.509Z,5.20
2018-03-31T04:18:51.154Z,5.20
2018-03-31T04:20:53.773Z,5.20
2018-03-31T04:22:56.397Z,5.20
2018-03-31T04:24:59.015Z,5.20
2018-03-31T04:27:01.607Z,5.10
2018-03-31T04:29:05.001Z,5.00
2018-03-31T04:31:08.384Z,4.90
2018-03-31T04:33:11.023Z,4.90
2018-03-31T04:35:13.623Z,4.90
2018-03-31T04:37:16.231Z,4.80
2018-03-31T04:39:18.855Z,4.80
2018-03-31T04:41:21.460Z,4.70
2018-03-31T04:43:24.086Z,4.70
2018-03-31T04:45:26.702Z,4.70
2018-03-31T04:47:30.067Z,4.50
2018-03-31T04:49:32.718Z,4.50
2018-03-31T04:51:35.336Z,4.50
2018-03-31T04:53:37.918Z,4.50
2018-03-31T04:55:40.541Z,4.50
2018-03-31T04:57:43.133Z,4.50
2018-03-31T04:59:45.788Z,4.50
2018-03-31T05:01:48.423Z,4.40
2018-03-31T05:03:51.795Z,4.50
2018-03-31T05:05:55.922Z,4.40
2018-03-31T05:07:59.304Z,4.50
2018-03-31T05:10:01.947Z,4.50
2018-03-31T05:12:04.580Z,4.50
2018-03-31T05:14:07.967Z,4.50
2018-03-31T05:16:10.626Z,4.50
2018-03-31T05:18:13.268Z,4.50
2018-03-31T05:20:16.499Z,4.50
2018-03-31T05:22:19.136Z,4.50
2018-03-31T05:24:21.736Z,4.50
2018-03-31T05:26:24.440Z,4.50
2018-03-31T05:28:27.119Z,4.60
2018-03-31T05:30:29.705Z,4.60
2018-03-31T05:32:32.302Z,4.60
2018-03-31T05:34:34.942Z,4.60
2018-03-31T05:36:37.555Z,4.50
2018-03-31T05:38:40.199Z,4.50
2018-03-31T05:40:42.939Z,4.50
2018-03-31T05:42:45.589Z,4.50
2018-03-31T05:44:48.206Z,4.50
2018-03-31T05:46:51.670Z,4.50
2018-03-31T05:48:55.053Z,4.60
2018-03-31T05:50:57.694Z,4.60
2018-03-31T05:53:00.307Z,4.60
2018-03-31T05:55:02.905Z,4.70
2018-03-31T05:57:06.274Z,4.70
2018-03-31T05:59:08.883Z,4.70
2018-03-31T06:01:12.250Z,4.70
2018-03-31T06:03:14.844Z,4.60
2018-03-31T06:05:18.206Z,4.70
2018-03-31T06:07:21.573Z,4.80
2018-03-31T06:09:24.169Z,4.70
2018-03-31T06:11:26.770Z,4.80
2018-03-31T06:13:30.171Z,4.90
2018-03-31T06:15:32.788Z,4.90
2018-03-31T06:17:35.386Z,5.00
2018-03-31T06:19:37.996Z,5.00
2018-03-31T06:21:40.575Z,5.10
2018-03-31T06:23:43.164Z,5.20
2018-03-31T06:25:45.748Z,5.20
2018-03-31T06:27:48.342Z,5.30
2018-03-31T06:29:50.967Z,5.40
2018-03-31T06:31:53.583Z,5.40
2018-03-31T06:33:56.190Z,5.50
2018-03-31T06:35:58.952Z,5.50
2018-03-31T06:38:01.611Z,5.50
2018-03-31T06:40:05.018Z,5.60
2018-03-31T06:42:08.444Z,5.60
2018-03-31T06:44:11.855Z,5.80
2018-03-31T06:46:14.536Z,5.80
2018-03-31T06:48:17.123Z,5.90
2018-03-31T06:50:19.765Z,6.00
2018-03-31T06:52:23.210Z,6.20
2018-03-31T06:54:25.821Z,6.10
2018-03-31T06:56:29.167Z,6.30
2018-03-31T06:58:31.803Z,6.30
2018-03-31T07:00:34.450Z,6.40
2018-03-31T07:02:37.103Z,6.40
2018-03-31T07:04:39.888Z,6.50
2018-03-31T07:06:43.265Z,6.50
2018-03-31T07:08:45.866Z,6.50
2018-03-31T07:10:48.482Z,6.40
2018-03-31T07:12:51.220Z,6.40
2018-03-31T07:14:54.600Z,6.50
2018-03-31T07:16:57.272Z,6.50
2018-03-31T07:19:00.659Z,6.80
2018-03-31T07:21:03.285Z,6.80
2018-03-31T07:23:05.943Z,7.00
2018-03-31T07:25:09.285Z,7.30
2018-03-31T07:27:11.884Z,7.20
2018-03-31T07:29:14.481Z,7.30
2018-03-31T07:31:17.834Z,7.40
2018-03-31T07:33:20.476Z,7.40
2018-03-31T07:35:23.068Z,7.40
2018-03-31T07:37:25.644Z,7.30
2018-03-31T07:39:28.233Z,7.40
2018-03-31T07:41:30.830Z,7.30
2018-03-31T07:43:34.206Z,7.20
2018-03-31T07:45:36.815Z,7.20
2018-03-31T07:47:40.173Z,7.10
2018-03-31T07:49:42.795Z,7.10
2018-03-31T07:51:45.411Z,7.10
2018-03-31T07:53:48.006Z,7.20
2018-03-31T07:55:51.831Z,7.40
2018-03-31T07:57:55.254Z,7.70
2018-03-31T07:59:57.869Z,7.70
2018-03-31T08:02:00.463Z,7.80
2018-03-31T08:04:03.870Z,7.70
2018-03-31T08:06:06.505Z,7.70
2018-03-31T08:08:09.348Z,7.70
2018-03-31T08:10:11.947Z,7.70
2018-03-31T08:12:14.600Z,7.80
2018-03-31T08:14:17.198Z,7.80
2018-03-31T08:16:19.804Z,7.90
2018-03-31T08:18:23.165Z,8.30
2018-03-31T08:20:25.762Z,8.30
2018-03-31T08:22:28.486Z,8.50
2018-03-31T08:24:31.171Z,8.80
2018-03-31T08:26:33.969Z,9.10
2018-03-31T08:28:36.625Z,9.30
2018-03-31T08:30:39.542Z,9.50
2018-03-31T08:32:42.244Z,9.70
2018-03-31T08:34:45.627Z,10.10
2018-03-31T08:36:48.998Z,10.40
2018-03-31T08:38:51.603Z,10.30
2018-03-31T08:40:54.246Z,10.60
2018-03-31T08:42:56.856Z,10.80
2018-03-31T08:44:59.454Z,11.00
2018-03-31T08:47:02.055Z,11.20
2018-03-31T08:49:04.668Z,11.40
2018-03-31T08:51:08.048Z,11.70
2018-03-31T08:53:11.433Z,11.80
2018-03-31T08:55:14.799Z,11.90
2018-03-31T08:57:17.400Z,11.90
2018-03-31T08:59:19.985Z,11.80
2018-03-31T09:01:22.732Z,11.90
2018-03-31T09:03:25.351Z,11.90
2018-03-31T09:05:28.717Z,11.90
2018-03-31T09:07:31.310Z,11.90
2018-03-31T09:09:34.663Z,11.80
2018-03-31T09:11:37.293Z,11.80
2018-03-31T09:13:39.974Z,11.80
2018-03-31T09:15:42.714Z,12.00
2018-03-31T09:17:46.087Z,12.10
2018-03-31T09:19:48.688Z,12.10
2018-03-31T09:21:52.129Z,12.10
2018-03-31T09:23:54.720Z,12.10
2018-03-31T09:25:58.119Z,12.10
2018-03-31T09:28:00.766Z,12.10
2018-03-31T09:32:13.046Z,12.80
2018-03-31T09:34:16.441Z,12.90
2018-03-31T09:36:19.044Z,12.90
2018-03-31T09:38:21.702Z,13.10
2018-03-31T09:40:24.309Z,13.10
2018-03-31T09:42:26.961Z,13.20
2018-03-31T09:44:29.569Z,13.10
2018-03-31T09:46:32.172Z,13.00
2018-03-31T09:48:35.529Z,12.90
2018-03-31T09:50:38.136Z,12.80
2018-03-31T09:52:41.514Z,12.70
2018-03-31T09:54:44.174Z,12.60
2018-03-31T09:56:46.780Z,12.60
2018-03-31T09:58:50.148Z,12.60
2018-03-31T10:00:58.501Z,12.60
2018-03-31T10:03:01.082Z,12.80
2018-03-31T10:05:03.753Z,12.90
2018-03-31T10:07:07.114Z,13.00
2018-03-31T10:09:10.519Z,13.10
2018-03-31T10:11:13.897Z,13.30
2018-03-31T10:13:16.486Z,13.30
2018-03-31T10:15:19.852Z,13.40
2018-03-31T10:17:22.443Z,13.40
2018-03-31T10:19:25.031Z,13.50
2018-03-31T10:21:28.408Z,13.70
2018-03-31T10:23:31.017Z,14.00
2018-03-31T10:25:33.611Z,14.00
2018-03-31T10:27:36.207Z,13.60
2018-03-31T10:29:38.841Z,13.70
2018-03-31T10:31:41.447Z,13.80
2018-03-31T10:33:44.038Z,13.60
2018-03-31T10:35:46.638Z,13.50
2018-03-31T10:37:50.009Z,13.60
2018-03-31T10:39:52.598Z,13.50
2018-03-31T10:41:55.995Z,13.10
2018-03-31T10:43:59.349Z,13.10
2018-03-31T10:46:01.944Z,13.00
2018-03-31T10:48:04.543Z,13.30
2018-03-31T10:50:07.904Z,13.80
2018-03-31T10:52:10.510Z,13.80
2018-03-31T10:54:13.197Z,14.10
2018-03-31T10:56:15.815Z,14.40
2018-03-31T10:58:18.405Z,14.20
2018-03-31T11:00:21.013Z,14.30
2018-03-31T11:02:23.627Z,14.20
2018-03-31T11:04:26.293Z,14.30
2018-03-31T11:06:28.896Z,14.50
2018-03-31T11:08:31.495Z,14.10
2018-03-31T11:10:34.861Z,14.40
2018-03-31T11:12:37.461Z,14.40
2018-03-31T11:14:40.827Z,14.00
2018-03-31T11:16:43.449Z,13.90
2018-03-31T11:18:46.218Z,14.10
2018-03-31T11:20:48.842Z,14.20
2018-03-31T11:22:52.383Z,14.40
2018-03-31T11:24:55.738Z,14.60
2018-03-31T11:26:58.635Z,14.50
2018-03-31T11:29:02.014Z,14.70
2018-03-31T11:31:04.620Z,14.70
2018-03-31T11:33:07.987Z,14.80
2018-03-31T11:35:12.275Z,14.80
2018-03-31T11:37:14.868Z,14.80
2018-03-31T11:39:17.474Z,15.00
2018-03-31T11:41:21.263Z,15.40
2018-03-31T11:43:24.629Z,15.60
2018-03-31T11:45:28.135Z,15.60
2018-03-31T11:47:30.727Z,15.80
2018-03-31T11:49:34.101Z,15.90
2018-03-31T11:51:36.688Z,15.90
2018-03-31T11:53:40.053Z,15.50
2018-03-31T11:55:42.643Z,15.50
2018-03-31T11:57:46.035Z,15.10
2018-03-31T11:59:49.408Z,15.10
2018-03-31T12:01:52.002Z,15.10
2018-03-31T12:03:54.626Z,15.10
2018-03-31T12:05:57.231Z,15.00
2018-03-31T12:07:59.827Z,14.90
2018-03-31T12:10:02.409Z,14.80
2018-03-31T12:12:05.746Z,14.50
2018-03-31T12:14:08.371Z,14.50
2018-03-31T12:16:11.828Z,14.60
2018-03-31T12:18:14.435Z,14.60
2018-03-31T12:20:17.226Z,14.60
2018-03-31T12:22:21.022Z,14.40
2018-03-31T12:24:24.813Z,14.40
2018-03-31T12:26:27.394Z,14.40
2018-03-31T12:28:30.753Z,14.50
2018-03-31T12:30:33.782Z,14.40
2018-03-31T12:32:37.761Z,14.40
2018-03-31T12:34:40.439Z,14.40
2018-03-31T12:36:43.039Z,14.70
2018-03-31T12:38:45.660Z,14.90
2018-03-31T12:40:48.242Z,15.00
2018-03-31T12:42:51.637Z,14.90
2018-03-31T12:44:54.284Z,14.90
2018-03-31T12:46:56.878Z,14.80
2018-03-31T12:48:59.453Z,14.80
2018-03-31T12:51:02.058Z,14.70
2018-03-31T12:53:05.327Z,14.60
2018-03-31T12:55:07.925Z,14.40
2018-03-31T12:57:11.294Z,14.40
2018-03-31T12:59:14.733Z,14.60
2018-03-31T13:01:17.333Z,14.60
2018-03-31T13:03:19.941Z,14.80
2018-03-31T13:05:22.578Z,14.80
2018-03-31T13:07:25.173Z,14.60
2018-03-31T13:09:27.781Z,14.80
2018-03-31T13:11:31.141Z,15.40
2018-03-31T13:13:33.746Z,15.40
2018-03-31T13:15:37.129Z,15.60
2018-03-31T13:17:39.739Z,15.70
2018-03-31T13:19:42.319Z,15.30
2018-03-31T13:21:44.913Z,15.20
2018-03-31T13:23:47.536Z,15.10
2018-03-31T13:25:50.906Z,14.90
2018-03-31T13:27:53.492Z,14.90
2018-03-31T13:29:56.848Z,15.10
2018-03-31T13:31:59.447Z,15.10
2018-03-31T13:34:02.031Z,15.30
2018-03-31T13:36:05.386Z,15.90
2018-03-31T13:38:07.999Z,15.90
2018-03-31T13:40:10.611Z,16.20
2018-03-31T13:42:13.205Z,16.40
2018-03-31T13:44:15.792Z,16.50
2018-03-31T13:46:18.378Z,16.50
2018-03-31T13:48:20.980Z,16.60
2018-03-31T13:50:24.369Z,16.60
2018-03-31T13:52:27.785Z,16.60
2018-03-31T13:54:30.368Z,16.60
2018-03-31T13:56:33.750Z,16.60
2018-03-31T13:58:36.346Z,16.60
2018-03-31T14:00:38.926Z,16.60
2018-03-31T14:02:41.537Z,16.60
2018-03-31T14:04:44.121Z,16.50
2018-03-31T14:06:47.489Z,16.30
2018-03-31T14:08:50.907Z,16.30
2018-03-31T14:10:54.266Z,15.70
2018-03-31T14:12:56.877Z,15.70
2018-03-31T14:15:00.224Z,15.30
2018-03-31T14:17:02.822Z,15.30
2018-03-31T14:19:05.419Z,15.30
2018-03-31T14:21:08.804Z,15.50
2018-03-31T14:23:12.180Z,15.60
2018-03-31T14:25:14.771Z,15.60
2018-03-31T14:27:18.192Z,15.80
2018-03-31T14:29:20.813Z,15.80
2018-03-31T14:31:23.416Z,15.60
2018-03-31T14:33:26.791Z,15.50
2018-03-31T14:35:29.391Z,15.50
2018-03-31T14:37:32.003Z,15.50
2018-03-31T14:39:34.637Z,15.50
2018-03-31T14:41:37.169Z,15.50
2018-03-31T14:43:39.814Z,15.40
2018-03-31T14:45:42.408Z,15.30
2018-03-31T14:47:44.998Z,15.30
2018-03-31T14:49:47.598Z,15.20
2018-03-31T14:51:50.949Z,15.00
2018-03-31T14:53:53.580Z,15.00
2018-03-31T14:55:56.149Z,14.80
2018-03-31T14:57:58.757Z,14.40
2018-03-31T15:00:01.345Z,14.10
2018-03-31T15:02:03.922Z,13.90
2018-03-31T15:04:06.543Z,13.80
2018-03-31T15:06:09.145Z,13.70
2018-03-31T15:08:11.773Z,13.70
2018-03-31T15:10:14.402Z,13.70
2018-03-31T15:12:16.991Z,13.40
2018-03-31T15:14:19.595Z,13.40
2018-03-31T15:16:22.946Z,13.30
2018-03-31T15:18:25.543Z,13.30
2018-03-31T15:20:28.646Z,13.40
2018-03-31T15:22:32.039Z,13.50
2018-03-31T15:24:34.601Z,13.50
2018-03-31T15:26:37.187Z,13.50
2018-03-31T15:28:40.590Z,13.50
2018-03-31T15:30:43.176Z,13.50
2018-03-31T15:32:46.543Z,13.40
2018-03-31T15:34:49.904Z,13.30
2018-03-31T15:36:54.198Z,13.30
2018-03-31T15:38:56.927Z,13.30
2018-03-31T15:41:00.306Z,13.30
2018-03-31T15:43:03.430Z,13.30
2018-03-31T15:45:06.033Z,13.50
2018-03-31T15:47:08.635Z,13.70
2018-03-31T15:49:11.213Z,13.70
2018-03-31T15:51:14.459Z,13.80
2018-03-31T15:53:17.942Z,13.80
2018-03-31T15:55:20.531Z,14.00
2018-03-31T15:57:23.783Z,14.00
2018-03-31T15:59:27.978Z,14.30
2018-03-31T16:01:30.638Z,14.30
2018-03-31T16:03:33.346Z,14.40
2018-03-31T16:05:35.979Z,14.60
2018-03-31T16:07:38.794Z,14.70
2018-03-31T16:09:42.307Z,14.80
2018-03-31T16:11:46.612Z,14.80
2018-03-31T16:13:49.225Z,14.80
2018-03-31T16:15:51.843Z,14.90
2018-03-31T16:17:56.300Z,15.10
2018-03-31T16:19:59.039Z,15.10
2018-03-31T16:22:02.446Z,15.30
2018-03-31T16:24:05.814Z,15.30
2018-03-31T16:26:08.494Z,15.30
2018-03-31T16:28:11.091Z,15.20
2018-03-31T16:30:13.722Z,15.20
2018-03-31T16:32:16.727Z,15.30
2018-03-31T16:34:19.522Z,15.30
2018-03-31T16:36:25.840Z,15.30
2018-03-31T16:38:28.749Z,15.20
2018-03-31T16:40:31.678Z,15.10
2018-03-31T16:42:34.655Z,15.00
2018-03-31T16:44:37.938Z,14.90
2018-03-31T16:46:40.572Z,14.90
2018-03-31T16:48:43.172Z,14.70
2018-03-31T16:50:45.748Z,14.70
2018-03-31T16:52:48.552Z,14.60
2018-03-31T16:54:51.172Z,14.50
2018-03-31T16:56:53.773Z,14.30
2018-03-31T16:58:56.390Z,14.10
2018-03-31T17:01:01.030Z,13.90
2018-03-31T17:03:03.636Z,13.90
2018-03-31T17:05:06.222Z,13.80
2018-03-31T17:07:08.805Z,13.70
2018-03-31T17:09:11.386Z,13.60
2018-03-31T17:11:13.979Z,13.50
2018-03-31T17:13:17.104Z,13.50
2018-03-31T17:15:19.717Z,13.40
2018-03-31T17:17:22.565Z,13.30
2018-03-31T17:19:25.296Z,13.10
2018-03-31T17:21:28.684Z,13.00
2018-03-31T17:23:31.659Z,13.00
2018-03-31T17:25:34.261Z,12.90
2018-03-31T17:27:36.850Z,12.90
2018-03-31T17:29:40.346Z,12.80
2018-03-31T17:31:42.966Z,12.70
2018-03-31T17:35:54.550Z,12.50
2018-03-31T17:37:57.441Z,12.40
2018-03-31T17:40:00.028Z,12.40
2018-03-31T17:42:02.668Z,12.30
2018-03-31T17:44:05.380Z,12.30
2018-03-31T17:46:07.978Z,12.20
2018-03-31T17:48:10.683Z,12.10
2018-03-31T17:50:15.092Z,12.00
2018-03-31T17:52:17.942Z,12.00
2018-03-31T17:54:20.689Z,12.00
2018-03-31T17:56:23.279Z,12.00
2018-03-31T17:58:25.866Z,11.80
2018-03-31T18:00:28.460Z,11.80
2018-03-31T18:02:31.062Z,11.70
2018-03-31T18:04:33.689Z,11.70
2018-03-31T18:06:36.319Z,11.60
2018-03-31T18:08:38.937Z,11.60
2018-03-31T18:10:41.532Z,11.50
2018-03-31T18:12:44.146Z,11.40
2018-03-31T18:14:46.738Z,11.30
2018-03-31T18:16:49.317Z,11.30
2018-03-31T18:18:51.910Z,11.20
2018-03-31T18:20:55.644Z,11.20
2018-03-31T18:22:59.525Z,11.10
2018-03-31T18:25:02.116Z,11.10
2018-03-31T18:27:05.468Z,11.00
2018-03-31T18:29:08.822Z,11.00
2018-03-31T18:31:11.577Z,10.90
2018-03-31T18:33:14.314Z,10.90
2018-03-31T18:35:17.018Z,10.90
2018-03-31T18:37:19.676Z,10.80
2018-03-31T18:39:22.484Z,10.80
2018-03-31T18:41:26.024Z,10.70
2018-03-31T18:43:28.727Z,10.70
2018-03-31T18:45:31.442Z,10.70
2018-03-31T18:47:34.068Z,10.60
2018-03-31T18:49:36.716Z,10.60
2018-03-31T18:51:39.367Z,10.50
2018-03-31T18:53:41.988Z,10.50
2018-03-31T18:55:44.589Z,10.40
2018-03-31T18:57:48.167Z,10.40
2018-03-31T18:59:50.815Z,10.40
2018-03-31T19:01:53.443Z,10.40
2018-03-31T19:03:56.807Z,10.30
2018-03-31T19:05:59.486Z,10.30
2018-03-31T19:08:02.062Z,10.30
2018-03-31T19:10:05.490Z,10.20
2018-03-31T19:12:08.341Z,10.20
2018-03-31T19:14:11.053Z,10.10
2018-03-31T19:16:13.669Z,10.10
2018-03-31T19:18:16.314Z,10.00
2018-03-31T19:20:19.881Z,10.00
2018-03-31T19:22:23.925Z,10.00
2018-03-31T19:24:26.780Z,9.90
2018-03-31T19:26:30.728Z,9.90
2018-03-31T19:28:33.409Z,9.80
2018-03-31T19:30:41.729Z,9.80
2018-03-31T19:32:45.249Z,9.70
2018-03-31T19:34:47.964Z,9.70
2018-03-31T19:36:50.570Z,9.70
2018-03-31T19:38:53.151Z,9.60
2018-03-31T19:40:55.750Z,9.60
2018-03-31T19:42:59.159Z,9.50
2018-03-31T19:45:02.585Z,9.40
2018-03-31T19:47:05.233Z,9.40
2018-03-31T19:49:07.850Z,9.40
2018-03-31T19:51:10.487Z,9.30
2018-03-31T19:53:13.137Z,9.20
2018-03-31T19:55:16.495Z,9.20
2018-03-31T19:57:19.073Z,9.10
2018-03-31T19:59:22.714Z,9.10
2018-03-31T20:01:25.379Z,9.10
2018-03-31T20:03:28.798Z,9.00
2018-03-31T20:05:31.562Z,9.00
2018-03-31T20:07:35.160Z,9.00
2018-03-31T20:09:38.003Z,8.90
2018-03-31T20:11:40.677Z,8.90
2018-03-31T20:13:43.582Z,8.90
2018-03-31T20:15:46.636Z,8.90
2018-03-31T20:17:49.244Z,8.80
2018-03-31T20:19:51.861Z,8.80
2018-03-31T20:21:54.495Z,8.70
2018-03-31T20:23:57.848Z,8.70
2018-03-31T20:26:00.430Z,8.70
2018-03-31T20:28:03.074Z,8.70
2018-03-31T20:30:05.859Z,8.60
2018-03-31T20:32:08.462Z,8.60
2018-03-31T20:34:11.829Z,8.60
2018-03-31T20:36:14.582Z,8.60
2018-03-31T20:38:17.262Z,8.60
2018-03-31T20:40:19.915Z,8.60
2018-03-31T20:42:23.280Z,8.60
2018-03-31T20:44:25.876Z,8.60
2018-03-31T20:46:29.209Z,8.60
2018-03-31T20:48:31.819Z,8.60
2018-03-31T20:50:34.918Z,8.60
2018-03-31T20:52:38.264Z,8.60
2018-03-31T20:54:40.930Z,8.60
2018-03-31T20:56:43.573Z,8.60
2018-03-31T20:58:46.242Z,8.60
2018-03-31T21:00:50.362Z,8.60
2018-03-31T21:02:54.246Z,8.60
2018-03-31T21:04:58.465Z,8.60
2018-03-31T21:07:01.247Z,8.60
2018-03-31T21:09:04.078Z,8.60
2018-03-31T21:11:06.699Z,8.60
2018-03-31T21:13:10.711Z,8.60
2018-03-31T21:15:13.409Z,8.60
2018-03-31T21:17:16.002Z,8.60
2018-03-31T21:19:18.622Z,8.60
2018-03-31T21:21:22.049Z,8.50
2018-03-31T21:23:24.664Z,8.50
2018-03-31T21:25:27.386Z,8.50
2018-03-31T21:27:30.800Z,8.50
2018-03-31T21:29:33.532Z,8.50
2018-03-31T21:31:36.951Z,8.50
2018-03-31T21:33:39.750Z,8.50
2018-03-31T21:35:42.357Z,8.50
2018-03-31T21:37:44.966Z,8.50
2018-03-31T21:39:47.575Z,8.50
2018-03-31T21:41:50.427Z,8.50
2018-03-31T21:43:53.103Z,8.50
2018-03-31T21:45:55.798Z,8.50
2018-03-31T21:47:59.111Z,8.40
2018-03-31T21:50:01.690Z,8.40
2018-03-31T21:52:04.301Z,8.40
2018-03-31T21:54:07.713Z,8.40
2018-03-31T21:56:10.287Z,8.40
2018-03-31T21:58:12.871Z,8.30
2018-03-31T22:00:15.458Z,8.40
2018-03-31T22:02:18.040Z,8.30
2018-03-31T22:04:20.630Z,8.30
2018-03-31T22:06:23.221Z,8.30
2018-03-31T22:08:25.826Z,8.20
2018-03-31T22:10:28.432Z,8.20
2018-03-31T22:12:31.065Z,8.20
2018-03-31T22:14:40.067Z,8.10
2018-03-31T22:16:42.649Z,8.10
2018-03-31T22:18:45.258Z,8.10
2018-03-31T22:20:47.860Z,8.10
2018-03-31T22:22:50.436Z,8.10
2018-03-31T22:24:53.029Z,7.80
2018-03-31T22:26:55.623Z,7.70
2018-03-31T22:28:58.982Z,7.50
2018-03-31T22:31:01.572Z,7.50
2018-03-31T22:33:04.147Z,7.50
2018-03-31T22:35:06.735Z,7.50
2018-03-31T22:37:10.096Z,7.50
2018-03-31T22:39:12.766Z,7.50
2018-03-31T22:41:15.324Z,7.40
2018-03-31T22:43:17.956Z,7.40
2018-03-31T22:45:20.563Z,7.40
2018-03-31T22:47:23.166Z,7.40
2018-03-31T22:49:25.764Z,7.40
2018-03-31T22:51:28.349Z,7.40
2018-03-31T22:53:31.731Z,7.30
2018-03-31T22:55:34.315Z,7.30
2018-03-31T22:57:37.746Z,7.10
2018-03-31T22:59:40.351Z,7.10
2018-03-31T23:01:42.955Z,7.00
2018-03-31T23:03:46.086Z,7.10
2018-03-31T23:05:48.915Z,7.10
2018-03-31T23:07:51.750Z,7.10
2018-03-31T23:09:54.587Z,7.20
2018-03-31T23:11:58.177Z,7.20
2018-03-31T23:14:01.054Z,7.20
2018-03-31T23:16:03.883Z,7.30
2018-03-31T23:18:06.710Z,7.40
2018-03-31T23:20:09.538Z,7.50
2018-03-31T23:22:12.403Z,7.50
2018-03-31T23:24:15.307Z,7.50
2018-03-31T23:26:18.127Z,7.50
2018-03-31T23:28:20.961Z,7.50
2018-03-31T23:30:24.583Z,7.60
2018-03-31T23:32:27.456Z,7.50
2018-03-31T23:34:30.311Z,7.60
2018-03-31T23:36:33.164Z,7.60
2018-03-31T23:38:37.944Z,7.50
2018-03-31T23:40:40.539Z,7.50
2018-03-31T23:42:43.142Z,7.50
2018-03-31T23:44:45.741Z,7.50
2018-03-31T23:46:48.338Z,7.50
2018-03-31T23:48:50.925Z,7.50
2018-03-31T23:50:53.515Z,7.60
2018-03-31T23:52:56.884Z,7.60
2018-03-31T23:54:59.462Z,7.60
2018-03-31T23:57:02.055Z,7.70
2018-03-31T23:59:05.421Z,7.60
